Latest Weather Observations for Griffith

IDN60801

Issued at 2:04 am EDT Tuesday 23 December 2014 (issued every 30 minutes, with the page automatically refreshed every 10 minutes)

About weather observations | Map of weather stations | Latest weather observations for NSW | Other Formats
Station Details ID: 075041 Name: GRIFFITH AIRPORT AWS Lat: -34.25 Lon: 146.07 Height: 134.0 m
Data from the previous 72 hours. | See also: Recent months at Griffith
Date/Time
EDT
Temp
°C
App
Temp
°C
Dew
Point
Rel
Hum
%
Delta-T
°C
Wind Press
QNH
hPa
Press
MSL
hPa
Rain
since 9 am
mm
Dir
 
Spd
km/h
Gust
km/h
Spd
kts
Gust
kts
23/02:00am 26.7 24.9 7.2 29 10.4 NE 6 9 3 5 1008.5 1007.9 0.0
23/01:30am 27.6 25.3 7.5 28 10.8 NE 9 11 5 6 1008.8 1008.2 0.0
23/01:00am 27.5 24.7 8.4 30 10.5 NNE 13 17 7 9 1009.4 1008.8 0.0
23/12:30am 27.5 25.2 7.4 28 10.8 NNE 9 11 5 6 1009.8 1009.2 0.0
23/12:00am 28.7 26.7 7.3 26 11.6 WSW 7 11 4 6 1009.8 1009.2 0.0
 
Date/Time
EDT
Temp
°C
App
Temp
°C
Dew
Point
Rel
Hum
%
Delta-T
°C
Wind Press
QNH
hPa
Press
MSL
hPa
Rain
since 9 am
mm
Dir
 
Spd
km/h
Gust
km/h
Spd
kts
Gust
kts
22/11:30pm 29.5 26.5 6.2 23 12.4 W 11 15 6 8 1009.8 1009.2 0.0
22/11:00pm 30.4 24.1 5.6 21 13.2 WNW 28 43 15 23 1009.9 1009.3 0.0
22/10:30pm 31.8 24.2 3.8 17 14.5 NNW 33 43 18 23 1009.5 1008.9 0.0
22/10:21pm 32.0 25.3 3.9 17 14.6 NW 28 52 15 28 1009.4 1008.8 0.0
22/10:18pm 32.0 25.7 3.9 17 14.6 NW 26 52 14 28 1009.3 1008.7 0.0
22/10:00pm 32.2 27.5 3.2 16 14.9 WNW 17 30 9 16 1008.9 1008.3 0.0
22/09:41pm 32.6 27.4 2.6 15 15.3 NW 19 46 10 25 1008.7 1008.1 0.0
22/09:30pm 32.5 27.7 2.5 15 15.3 NW 17 26 9 14 1008.6 1008.0 0.0
22/09:00pm 33.4 28.0 2.3 14 15.9 WNW 20 39 11 21 1008.5 1007.9 0.0
22/08:30pm 33.7 28.1 1.5 13 16.3 N 20 39 11 21 1008.1 1007.5 0.0
22/08:13pm 33.7 27.6 2.5 14 16.0 NNW 24 46 13 25 1008.1 1007.5 0.0
22/08:10pm 33.4 28.2 2.3 14 15.9 N 19 39 10 21 1007.8 1007.3 0.0
22/08:00pm 32.7 28.7 2.7 15 15.4 NNE 13 17 7 9 1007.8 1007.3 0.0
22/07:30pm 34.6 29.0 1.1 12 16.9 NNW 20 43 11 23 1007.3 1006.8 0.0
22/07:00pm 33.0 29.3 4.7 17 15.0 NNE 13 19 7 10 1007.1 1006.6 0.0
22/06:30pm 33.1 28.5 6.4 19 14.5 NNE 20 28 11 15 1006.9 1006.4 0.0
22/06:00pm 34.2 29.1 3.9 15 16.0 N 20 28 11 15 1006.5 1005.9 0.0
22/05:30pm 34.2 27.5 3.9 15 15.9 N 28 52 15 28 1006.5 1005.9 0.0
22/05:00pm 34.5 28.4 5.0 16 15.9 NNW 26 32 14 17 1006.7 1006.1 0.0
22/04:30pm 36.1 30.5 7.2 17 16.2 NNE 26 33 14 18 1006.4 1005.8 0.0
22/04:00pm 33.3 29.2 8.0 21 14.2 E 19 24 10 13 1006.9 1006.4 0.0
22/03:30pm 33.5 28.7 8.9 22 14.0 ENE 24 32 13 17 1007.1 1006.6 0.0
22/03:00pm 35.4 29.7 8.3 19 15.4 ENE 28 37 15 20 1007.3 1006.8 0.0
22/02:30pm 35.6 29.3 7.6 18 15.7 NNE 30 39 16 21 1007.8 1007.3 0.0
22/02:00pm 35.3 29.6 6.6 17 15.9 NNE 26 35 14 19 1008.4 1007.8 0.0
22/01:30pm 35.6 29.3 7.6 18 15.7 N 30 41 16 22 1008.8 1008.2 0.0
22/01:00pm 37.5 30.8 5.5 14 17.6 NNW 30 44 16 24 1009.1 1008.5 0.0
22/12:40pm 36.6 29.6 5.8 15 16.9 N 32 52 17 28 1009.4 1008.8 0.0
22/12:30pm 37.5 32.2 8.3 17 16.8 N 26 37 14 20 1009.7 1009.1 0.0
22/12:00pm 36.0 29.8 9.5 20 15.4 N 32 43 17 23 1010.1 1009.5 0.0
22/11:30am 35.5 30.6 9.8 21 14.9 NNE 26 39 14 21 1010.6 1010.0 0.0
22/11:00am 34.5 29.9 11.0 24 13.9 N 26 37 14 20 1011.0 1010.4 0.0
22/10:30am 32.0 27.5 10.1 26 12.6 N 24 33 13 18 1011.2 1010.6 0.0
22/10:00am 30.6 26.2 10.5 29 11.6 N 24 32 13 17 1011.4 1010.8 0.0
22/09:30am 29.8 25.8 10.4 30 11.1 NNE 22 30 12 16 1011.5 1010.9 0.0
22/09:00am 28.8 26.0 10.0 31 10.6 NE 15 20 8 11 1011.6 1011.0 0.0
22/08:30am 28.9 25.6 9.6 30 10.8 NE 17 26 9 14 1011.4 1010.8 0.0
22/08:00am 28.8 25.5 9.5 30 10.8 NE 17 24 9 13 1011.1 1010.5 0.0
22/07:30am 27.7 24.2 8.6 30 10.5 NE 17 28 9 15 1010.9 1010.3 0.0
22/07:00am 23.7 20.0 6.5 33 8.9 ESE 15 19 8 10 1010.7 1010.1 0.0
22/06:30am 24.3 20.2 6.1 31 9.4 E 17 20 9 11 1010.5 1009.9 0.0
22/06:00am 26.0 20.1 3.9 24 11.1 ENE 24 28 13 15 1010.2 1009.6 0.0
22/05:30am 22.8 18.4 4.8 31 9.0 E 17 19 9 10 1010.0 1009.4 0.0
22/05:00am 23.6 19.4 5.5 31 9.2 E 17 19 9 10 1010.0 1009.4 0.0
22/04:30am 23.3 19.0 5.2 31 9.1 E 17 19 9 10 1010.1 1009.5 0.0
22/04:00am 24.1 19.9 5.5 30 9.5 E 17 19 9 10 1010.3 1009.7 0.0
22/03:30am 22.3 18.0 5.3 33 8.5 E 17 19 9 10 1010.2 1009.6 0.0
22/03:00am 22.5 18.8 6.3 35 8.3 E 15 17 8 9 1010.5 1009.9 0.0
22/02:30am 23.0 19.3 6.3 34 8.6 ESE 15 17 8 9 1010.6 1010.0 0.0
22/02:00am 23.8 20.1 6.1 32 9.1 ESE 15 17 8 9 1010.9 1010.3 0.0
22/01:30am 24.5 20.2 5.3 29 9.8 ESE 17 20 9 11 1011.1 1010.5 0.0
22/01:00am 26.5 22.1 4.9 25 11.1 SE 17 20 9 11 1011.2 1010.6 0.0
22/12:30am 27.0 22.6 4.7 24 11.4 SE 17 20 9 11 1011.5 1010.9 0.0
22/12:00am 27.1 23.0 4.2 23 11.6 SE 15 20 8 11 1011.7 1011.1 0.0
 
Date/Time
EDT
Temp
°C
App
Temp
°C
Dew
Point
Rel
Hum
%
Delta-T
°C
Wind Press
QNH
hPa
Press
MSL
hPa
Rain
since 9 am
mm
Dir
 
Spd
km/h
Gust
km/h
Spd
kts
Gust
kts
21/11:30pm 29.6 24.5 2.8 18 13.5 SSE 19 24 10 13 1011.6 1011.0 0.0
21/11:00pm 29.4 25.0 2.6 18 13.4 SSE 15 17 8 9 1011.6 1011.0 0.0
21/10:30pm 28.7 25.1 2.8 19 12.9 S 11 13 6 7 1011.6 1011.0 0.0
21/10:00pm 28.6 25.0 2.7 19 12.9 SSW 11 13 6 7 1011.6 1011.0 0.0
21/09:48pm 28.6 24.6 2.7 19 12.9 SSW 13 15 7 8 1011.4 1010.8 0.0
21/09:36pm 28.2 24.5 2.4 19 12.8 SSW 11 15 6 8 1011.3 1010.7 0.0
21/09:30pm 28.5 25.2 2.7 19 12.9 SSW 9 11 5 6 1011.3 1010.7 0.0
21/09:27pm 28.2 24.9 2.4 19 12.8 SSW 9 11 5 6 1011.2 1010.6 0.0
21/09:13pm 28.9 25.7 3.0 19 13.0 SW 9 9 5 5 1011.2 1010.6 0.0
21/09:00pm 29.3 26.0 2.5 18 13.4 SSW 9 11 5 6 1011.1 1010.5 0.0
21/08:30pm 31.1 28.1 2.3 16 14.5 SSW 7 9 4 5 1010.9 1010.3 0.0
21/08:00pm 33.2 30.2 2.1 14 15.8 SSW 7 9 4 5 1010.8 1010.2 0.0
21/07:30pm 33.4 30.3 1.3 13 16.1 SSW 7 9 4 5 1010.4 1009.8 0.0
21/07:00pm 34.0 30.0 0.6 12 16.7 SSW 11 17 6 9 1010.3 1009.7 0.0
21/06:30pm 35.1 30.9 1.5 12 17.1 S 13 19 7 10 1010.1 1009.5 0.0
21/06:00pm 35.1 30.9 1.5 12 17.1 WSW 13 24 7 13 1010.4 1009.8 0.0
21/05:30pm 35.3 31.5 1.6 12 17.2 SW 11 17 6 9 1010.5 1009.9 0.0
21/05:00pm 34.8 30.3 2.3 13 16.7 W 15 28 8 15 1010.8 1010.2 0.0
21/04:30pm 34.0 29.8 1.7 13 16.4 NNW 13 20 7 11 1011.0 1010.4 0.0
21/04:00pm 34.6 29.7 2.2 13 16.6 W 17 24 9 13 1011.4 1010.8 0.0
21/03:30pm 35.0 30.9 2.5 13 16.8 NW 13 28 7 15 1011.7 1011.1 0.0
21/03:00pm 34.4 30.4 3.1 14 16.3 W 13 22 7 12 1012.0 1011.4 0.0
21/02:30pm 33.9 29.1 2.7 14 16.1 WNW 17 26 9 14 1012.3 1011.7 0.0
21/02:00pm 33.3 29.7 3.2 15 15.6 WSW 11 20 6 11 1012.8 1012.2 0.0
21/01:30pm 33.1 29.5 3.0 15 15.5 W 11 19 6 10 1013.1 1012.5 0.0
21/01:00pm 32.7 29.8 4.5 17 14.9 SSE 9 19 5 10 1013.5 1013.0 0.0
21/12:30pm 32.2 28.8 4.1 17 14.7 N 11 22 6 12 1013.9 1013.4 0.0
21/12:00pm 32.1 28.3 4.0 17 14.6 NW 13 24 7 13 1014.2 1013.7 0.0
21/11:30am 31.4 28.6 5.0 19 13.9 WSW 9 20 5 11 1014.3 1013.8 0.0
21/11:00am 30.4 27.2 4.9 20 13.3 NNW 11 22 6 12 1014.5 1014.0 0.0
21/10:30am 30.2 26.7 5.5 21 13.0 N 13 24 7 13 1014.5 1014.0 0.0
21/10:00am 29.4 25.2 5.5 22 12.6 NNW 17 24 9 13 1014.8 1014.3 0.0
21/09:30am 28.3 25.3 5.8 24 11.8 NNE 11 19 6 10 1014.9 1014.4 0.0
21/09:00am 26.4 24.4 6.4 28 10.5 N 6 11 3 6 1015.4 1014.9 0.0
21/08:30am 25.1 22.4 7.3 32 9.4 E 11 17 6 9 1015.2 1014.7 0.0
21/08:00am 23.1 19.5 6.8 35 8.4 E 15 20 8 11 1014.9 1014.4 0.0
21/07:30am 22.8 18.9 7.0 36 8.2 ESE 17 22 9 12 1014.3 1013.8 0.0
21/07:00am 21.2 17.2 6.7 39 7.4 ESE 17 19 9 10 1014.0 1013.5 0.0
21/06:30am 19.0 15.9 7.1 46 6.0 ESE 13 13 7 7 1013.8 1013.3 0.0
21/06:00am 17.4 14.6 6.9 50 5.3 ESE 11 13 6 7 1013.6 1013.1 0.0
21/05:30am 17.9 15.0 6.7 48 5.6 E 11 13 6 7 1013.4 1012.9 0.0
21/05:00am 18.3 15.1 6.8 47 5.8 ESE 13 13 7 7 1013.4 1012.9 0.0
21/04:30am 18.4 15.2 6.9 47 5.8 ESE 13 15 7 8 1013.2 1012.6 0.0
21/04:00am 19.2 15.5 6.3 43 6.5 ESE 15 17 8 9 1013.1 1012.5 0.0
21/03:30am 19.8 15.7 6.2 41 6.8 SE 17 17 9 9 1013.2 1012.6 0.0
21/03:00am 20.8 17.0 6.0 38 7.4 SE 15 19 8 10 1013.4 1012.9 0.0
21/02:30am 21.9 18.5 5.8 35 8.1 SE 13 17 7 9 1013.5 1013.0 0.0
21/02:00am 22.7 18.9 6.0 34 8.5 SE 15 20 8 11 1013.7 1013.2 0.0
21/01:30am 23.8 20.0 5.7 31 9.2 SSE 15 20 8 11 1013.8 1013.3 0.0
21/01:00am 23.9 20.1 5.8 31 9.3 SSE 15 22 8 12 1013.9 1013.4 0.0
21/12:30am 24.6 20.4 5.9 30 9.6 SSE 17 22 9 12 1014.0 1013.5 0.0
21/12:00am 24.9 21.1 5.7 29 9.9 SSE 15 19 8 10 1014.1 1013.6 0.0
 
Date/Time
EDT
Temp
°C
App
Temp
°C
Dew
Point
Rel
Hum
%
Delta-T
°C
Wind Press
QNH
hPa
Press
MSL
hPa
Rain
since 9 am
mm
Dir
 
Spd
km/h
Gust
km/h
Spd
kts
Gust
kts
20/11:30pm 25.2 21.8 5.9 29 10.0 SSE 13 17 7 9 1014.3 1013.8 0.0
20/11:00pm 25.1 22.1 5.8 29 9.9 S 11 15 6 8 1014.4 1013.9 0.0
20/10:30pm 25.0 21.9 5.7 29 9.9 S 11 13 6 7 1014.3 1013.8 0.0
20/10:00pm 25.1 22.3 5.3 28 10.1 S 9 11 5 6 1014.3 1013.8 0.0
20/09:30pm 25.0 22.2 5.2 28 10.1 S 9 11 5 6 1014.0 1013.5 0.0
20/09:00pm 25.2 22.7 4.9 27 10.3 S 7 9 4 5 1013.9 1013.4 0.0
20/08:30pm 27.2 24.9 5.5 25 11.3 SSE 7 9 4 5 1013.7 1013.2 0.0
20/08:00pm 28.7 25.1 4.9 22 12.3 SSE 13 19 7 10 1013.5 1013.0 0.0
20/07:30pm 29.6 25.5 4.3 20 13.1 SSE 15 19 8 10 1013.4 1012.9 0.0
20/07:00pm 29.7 25.5 3.6 19 13.3 S 15 26 8 14 1013.1 1012.5 0.0
20/06:30pm 29.9 25.5 4.5 20 13.2 SSW 17 22 9 12 1013.0 1012.4 0.0
20/06:00pm 29.9 25.1 4.5 20 13.2 S 19 28 10 15 1013.1 1012.5 0.0
20/05:30pm 30.1 25.1 4.7 20 13.2 S 20 28 11 15 1013.0 1012.4 0.0
20/05:00pm 30.1 25.8 5.4 21 13.0 SW 17 28 9 15 1013.2 1012.6 0.0
20/04:30pm 29.8 25.6 5.8 22 12.7 SSE 17 24 9 13 1013.4 1012.9 0.0
20/04:00pm 30.0 25.9 6.0 22 12.8 SSW 17 30 9 16 1013.8 1013.3 0.0
20/03:30pm 29.0 24.7 5.1 22 12.5 SSW 17 24 9 13 1014.2 1013.7 0.0
20/03:00pm 28.7 24.5 5.5 23 12.1 SSW 17 28 9 15 1014.6 1014.1 0.0
20/02:30pm 28.3 24.5 5.8 24 11.8 WSW 15 30 8 16 1015.1 1014.6 0.0
20/02:00pm 28.6 24.4 5.5 23 12.1 SW 17 28 9 15 1015.5 1015.0 0.0
20/01:30pm 28.2 22.7 3.8 21 12.4 WSW 22 32 12 17 1016.0 1015.4 0.0
20/01:00pm 26.5 21.3 3.7 23 11.4 SW 20 33 11 18 1016.4 1015.8 0.0
20/12:30pm 26.1 21.4 3.4 23 11.3 SW 17 30 9 16 1016.8 1016.2 0.0
20/12:00pm 24.9 19.2 3.0 24 10.7 SW 22 33 12 18 1017.2 1016.6 0.0
20/11:30am 24.2 19.1 2.9 25 10.3 SW 19 26 10 14 1017.4 1016.8 0.0
20/11:00am 23.6 18.3 3.0 26 10.0 SSW 20 32 11 17 1017.7 1017.1 0.0
20/10:30am 22.6 18.7 3.2 28 9.4 SW 13 22 7 12 1017.9 1017.3 0.0
20/10:00am 21.6 16.7 2.3 28 9.1 S 17 26 9 14 1018.1 1017.5 0.0
20/09:30am 20.9 17.3 2.7 30 8.6 SSE 11 22 6 12 1018.2 1017.6 0.0
20/09:00am 19.4 16.3 3.6 35 7.5 S 9 13 5 7 1018.0 1017.4 0.0
20/08:30am 18.4 14.2 3.8 38 6.9 SE 15 20 8 11 1017.7 1017.1 0.0
20/08:00am 17.2 13.4 3.8 41 6.3 SSE 13 19 7 10 1017.4 1016.8 0.0
20/07:30am 16.7 12.9 3.7 42 6.1 S 13 19 7 10 1017.1 1016.5 0.0
20/07:00am 15.8 11.9 3.3 43 5.7 S 13 19 7 10 1016.9 1016.3 0.0
20/06:30am 15.3 11.7 3.1 44 5.6 S 11 15 6 8 1016.4 1015.8 0.0
20/06:00am 15.0 11.4 2.9 44 5.5 SSE 11 15 6 8 1016.1 1015.5 0.0
20/05:30am 15.4 11.7 2.6 42 5.8 SSE 11 15 6 8 1016.1 1015.5 0.0
20/05:00am 15.8 12.1 2.6 41 6.0 SSE 11 17 6 9 1016.0 1015.4 0.0
20/04:30am 15.9 11.9 2.7 41 6.0 SSE 13 17 7 9 1015.9 1015.3 0.0
20/04:00am 16.0 11.9 2.4 40 6.1 SSE 13 17 7 9 1015.8 1015.2 0.0
20/03:30am 16.5 12.1 2.5 39 6.4 SE 15 17 8 9 1016.0 1015.4 0.0
20/03:00am 16.7 12.2 2.3 38 6.5 SE 15 19 8 10 1016.0 1015.4 0.0
20/02:30am 17.1 12.9 1.9 36 6.9 SSE 13 17 7 9 1016.3 1015.7 0.0

Other Formats:

Comma delimited format used in spreadsheet applications
http://www.bom.gov.au/fwo/IDN60801/IDN60801.95704.axf

JavaScript Object Notation format (JSON) in row-major order
http://www.bom.gov.au/fwo/IDN60801/IDN60801.95704.json